Milledgeville, Tennessee
Current Conditions -  °F | °C
As of 5:15 PM on Friday 31 Oct 2014 (Local Time) from KSNH Reporting Station
Few Clouds Few Clouds  
Wind Chill: 50°   Ceiling: Unl
Heat Index: 50°   Visibility: 10mi
Dew Point: 27°   Wind: 13mph
Humidity: 40%   Direction: 330°NNW
Pressure: 30.13"   Gusts: NA
Location:  35.37°N, 88.37°W
Report Text: KSNH 312215Z AUTO 33011KT 10SM FEW060 10/M03 A3013 RMK
Loading
Personal Weather Stations






























Interactive Weather Map
Tropical Storm Tracking
New forecast layout! Learn more

10-Day Weather Forecast

Advertisements
Track Severe Weather on mobile